Pathein, Burma
Current Conditions -  °F | °C
As of 1:00 PM on Sunday 26 Oct 2014 (Local Time) from VYYY Reporting Station
Broken Clouds Broken Clouds  
Wind Chill: 90°   Ceiling: 1500
Heat Index: 102°   Visibility: 5mi
Dew Point: 77°   Wind: 3mph
Humidity: 66%   Direction: 60°ENE
Pressure: 29.91"   Gusts: NA
Location:  16.78°N, 94.73°E
Report Text: VYYY 260700Z 06003KT 8000 BKN015 FEW020TCU 32/25 Q1013 NOSIG
Loading
Personal Weather Stations






























Interactive Weather Map New forecast layout! Learn more

10-Day Weather Forecast

Advertisements
Track Severe Weather on mobile